createdAt,value
2018-06-10T00:00:21.525Z,18.90
2018-06-10T00:02:49.968Z,21.30
2018-06-10T00:05:18.728Z,19.10
2018-06-10T00:07:47.417Z,21.90
2018-06-10T00:10:16.162Z,18.63
2018-06-10T00:12:44.716Z,18.13
2018-06-10T00:15:13.173Z,17.27
2018-06-10T00:17:41.688Z,19.20
2018-06-10T00:20:10.145Z,17.83
2018-06-10T00:22:38.589Z,17.80
2018-06-10T00:25:07.453Z,19.47
2018-06-10T00:27:35.952Z,19.80
2018-06-10T00:30:04.965Z,18.20
2018-06-10T00:32:33.439Z,19.20
2018-06-10T00:35:02.173Z,15.50
2018-06-10T00:37:30.616Z,17.03
2018-06-10T00:39:59.216Z,16.53
2018-06-10T00:42:27.748Z,16.13
2018-06-10T00:44:56.631Z,19.63
2018-06-10T00:47:25.077Z,18.80
2018-06-10T00:49:53.561Z,17.17
2018-06-10T00:52:22.197Z,16.97
2018-06-10T00:54:50.873Z,18.90
2018-06-10T00:57:19.325Z,19.73
2018-06-10T00:59:47.760Z,20.10
2018-06-10T01:02:16.213Z,17.80
2018-06-10T01:04:44.672Z,17.57
2018-06-10T01:07:13.157Z,16.33
2018-06-10T01:09:41.595Z,15.40
2018-06-10T01:12:10.081Z,13.77
2018-06-10T01:14:38.579Z,15.80
2018-06-10T01:17:07.041Z,15.20
2018-06-10T01:19:36.497Z,16.43
2018-06-10T01:22:04.980Z,12.73
2018-06-10T01:24:33.457Z,13.97
2018-06-10T01:27:01.957Z,14.57
2018-06-10T01:29:30.389Z,13.67
2018-06-10T01:31:59.009Z,14.20
2018-06-10T01:34:27.134Z,14.00
2018-06-10T01:36:55.602Z,14.73
2018-06-10T01:39:24.064Z,12.70
2018-06-10T01:41:52.558Z,12.40
2018-06-10T01:44:21.006Z,13.43
2018-06-10T01:46:50.264Z,15.30
2018-06-10T01:49:18.714Z,14.50
2018-06-10T01:51:47.144Z,12.67
2018-06-10T01:54:15.595Z,12.67
2018-06-10T01:56:44.041Z,12.30
2018-06-10T01:59:12.524Z,17.47
2018-06-10T02:01:41.108Z,14.20
2018-06-10T02:04:09.576Z,14.03
2018-06-10T02:06:38.056Z,12.37
2018-06-10T02:09:06.877Z,15.90
2018-06-10T02:11:35.333Z,14.47
2018-06-10T02:14:03.804Z,16.67
2018-06-10T02:16:32.288Z,14.07
2018-06-10T02:19:00.728Z,14.70
2018-06-10T02:21:29.174Z,14.73
2018-06-10T02:23:57.626Z,14.67
2018-06-10T02:26:26.102Z,17.03
2018-06-10T02:28:54.597Z,17.47
2018-06-10T02:31:23.066Z,16.90
2018-06-10T02:33:51.568Z,17.07
2018-06-10T02:36:20.023Z,15.70
2018-06-10T02:38:48.565Z,16.03
2018-06-10T02:41:16.997Z,14.90
2018-06-10T02:43:45.445Z,14.40
2018-06-10T02:46:13.913Z,14.80
2018-06-10T02:48:42.369Z,14.07
2018-06-10T02:51:10.829Z,15.80
2018-06-10T02:53:39.265Z,15.17
2018-06-10T02:56:07.756Z,15.03
2018-06-10T02:58:36.216Z,13.57
2018-06-10T03:01:04.676Z,14.43
2018-06-10T03:03:32.809Z,15.60
2018-06-10T03:06:01.294Z,11.87
2018-06-10T03:08:29.737Z,13.13
2018-06-10T03:10:58.220Z,11.47
2018-06-10T03:13:26.679Z,13.40
2018-06-10T03:15:55.192Z,13.27
2018-06-10T03:18:23.630Z,13.60
2018-06-10T03:20:52.096Z,14.97
2018-06-10T03:23:20.624Z,12.93
2018-06-10T03:25:49.062Z,12.73
2018-06-10T03:28:17.525Z,14.03
2018-06-10T03:30:45.973Z,13.23
2018-06-10T03:33:14.461Z,14.70
2018-06-10T03:35:42.897Z,18.00
2018-06-10T03:38:11.373Z,17.10
2018-06-10T03:40:39.881Z,14.00
2018-06-10T03:43:08.320Z,15.70
2018-06-10T03:45:36.468Z,14.00
2018-06-10T03:48:04.909Z,13.73
2018-06-10T03:50:33.391Z,15.57
2018-06-10T03:53:01.817Z,16.60
2018-06-10T03:55:30.297Z,18.50
2018-06-10T03:57:58.813Z,19.10
2018-06-10T04:00:27.295Z,19.03
2018-06-10T04:02:55.741Z,18.93
2018-06-10T04:05:24.195Z,19.77
2018-06-10T04:07:52.672Z,20.83
2018-06-10T04:10:21.140Z,25.60
2018-06-10T04:12:49.638Z,23.80
2018-06-10T04:15:18.069Z,21.67
2018-06-10T04:17:46.525Z,22.23
2018-06-10T04:20:15.044Z,24.53
2018-06-10T04:22:43.617Z,23.70
2018-06-10T04:25:12.057Z,22.50
2018-06-10T04:27:40.521Z,25.33
2018-06-10T04:30:09.001Z,25.17
2018-06-10T04:32:37.657Z,24.77
2018-06-10T04:35:06.147Z,28.87
2018-06-10T04:37:34.644Z,28.37
2018-06-10T04:40:03.116Z,29.77
2018-06-10T04:42:31.541Z,30.10
2018-06-10T04:44:59.963Z,29.30
2018-06-10T04:47:29.017Z,28.40
2018-06-10T04:49:58.004Z,32.60
2018-06-10T04:52:26.196Z,33.07
2018-06-10T04:54:54.653Z,34.70
2018-06-10T04:57:23.113Z,34.30
2018-06-10T04:59:51.595Z,37.67
2018-06-10T05:02:20.103Z,33.33
2018-06-10T05:04:48.576Z,36.10
2018-06-10T05:07:17.389Z,37.63
2018-06-10T05:09:45.970Z,32.43
2018-06-10T05:12:14.496Z,39.27
2018-06-10T05:14:42.992Z,36.17
2018-06-10T05:17:11.481Z,34.33
2018-06-10T05:19:39.991Z,39.87
2018-06-10T05:22:08.381Z,37.33
2018-06-10T05:24:36.837Z,35.37
2018-06-10T05:27:05.409Z,35.20
2018-06-10T05:29:33.898Z,33.53
2018-06-10T05:32:02.433Z,32.30
2018-06-10T05:34:30.905Z,30.93
2018-06-10T05:36:59.480Z,30.77
2018-06-10T05:39:27.980Z,32.30
2018-06-10T05:41:56.483Z,33.00
2018-06-10T05:44:25.108Z,29.77
2018-06-10T05:46:53.680Z,30.30
2018-06-10T05:49:22.557Z,33.23
2018-06-10T05:51:51.136Z,38.20
2018-06-10T05:54:19.468Z,31.20
2018-06-10T05:56:47.944Z,29.77
2018-06-10T05:59:16.144Z,36.03
2018-06-10T06:01:44.613Z,31.37
2018-06-10T06:04:13.211Z,31.97
2018-06-10T06:06:41.684Z,33.87
2018-06-10T06:09:09.934Z,33.63
2018-06-10T06:11:38.359Z,33.20
2018-06-10T06:14:06.840Z,32.17
2018-06-10T06:16:35.312Z,36.20
2018-06-10T06:19:03.864Z,39.83
2018-06-10T06:21:32.306Z,38.30
2018-06-10T06:24:00.806Z,33.43
2018-06-10T06:26:29.264Z,35.60
2018-06-10T06:28:57.718Z,34.30
2018-06-10T06:31:26.213Z,33.07
2018-06-10T06:33:54.653Z,35.47
2018-06-10T06:36:23.108Z,34.67
2018-06-10T06:38:51.587Z,36.43
2018-06-10T06:41:20.083Z,39.00
2018-06-10T06:43:48.524Z,42.37
2018-06-10T06:46:17.061Z,38.50
2018-06-10T06:48:45.541Z,35.07
2018-06-10T06:51:13.965Z,36.53
2018-06-10T06:53:42.430Z,37.27
2018-06-10T06:56:10.892Z,38.50
2018-06-10T06:58:39.659Z,42.23
2018-06-10T07:01:08.084Z,39.43
2018-06-10T07:03:36.620Z,40.43
2018-06-10T07:06:05.223Z,44.17
2018-06-10T07:08:33.723Z,39.47
2018-06-10T07:11:02.261Z,45.20
2018-06-10T07:13:31.441Z,45.07
2018-06-10T07:16:00.035Z,43.80
2018-06-10T07:18:28.540Z,39.80
2018-06-10T07:20:57.051Z,43.20
2018-06-10T07:23:25.513Z,39.70
2018-06-10T07:25:53.969Z,39.97
2018-06-10T07:28:22.457Z,38.70
2018-06-10T07:30:51.037Z,40.50
2018-06-10T07:33:19.499Z,38.67
2018-06-10T07:35:47.980Z,36.53
2018-06-10T07:38:16.421Z,36.20
2018-06-10T07:40:44.910Z,35.70
2018-06-10T07:43:13.349Z,35.47
2018-06-10T07:45:41.814Z,40.13
2018-06-10T07:48:10.294Z,38.83
2018-06-10T07:50:38.736Z,37.30
2018-06-10T07:53:07.196Z,36.07
2018-06-10T07:55:35.624Z,38.57
2018-06-10T07:58:04.293Z,35.37
2018-06-10T08:00:32.741Z,36.93
2018-06-10T08:03:01.194Z,40.13
2018-06-10T08:05:29.934Z,39.10
2018-06-10T08:07:58.368Z,42.17
2018-06-10T08:10:26.811Z,40.20
2018-06-10T08:12:55.307Z,34.17
2018-06-10T08:15:23.813Z,33.67
2018-06-10T08:17:52.369Z,39.87
2018-06-10T08:20:20.818Z,31.23
2018-06-10T08:22:49.249Z,31.60
2018-06-10T08:25:17.772Z,32.30
2018-06-10T08:27:46.261Z,29.93
2018-06-10T08:30:14.750Z,33.93
2018-06-10T08:32:43.218Z,31.13
2018-06-10T08:35:12.105Z,32.43
2018-06-10T08:37:40.568Z,29.77
2018-06-10T08:40:09.016Z,29.93
2018-06-10T08:42:37.510Z,30.27
2018-06-10T08:45:06.088Z,31.73
2018-06-10T08:47:34.526Z,34.00
2018-06-10T08:50:03.117Z,32.53
2018-06-10T08:52:31.612Z,36.67
2018-06-10T08:55:00.067Z,32.27
2018-06-10T08:57:28.532Z,32.23
2018-06-10T08:59:56.984Z,31.97
2018-06-10T09:02:25.609Z,28.50
2018-06-10T09:04:54.084Z,30.13
2018-06-10T09:07:22.545Z,34.57
2018-06-10T09:09:51.076Z,29.30
2018-06-10T09:12:19.618Z,28.23
2018-06-10T09:14:49.044Z,25.27
2018-06-10T09:17:17.662Z,28.43
2018-06-10T09:19:46.173Z,23.97
2018-06-10T09:22:14.644Z,27.80
2018-06-10T09:24:43.258Z,31.90
2018-06-10T09:27:11.745Z,28.70
2018-06-10T09:29:40.250Z,29.27
2018-06-10T09:32:08.720Z,33.27
2018-06-10T09:34:37.157Z,28.67
2018-06-10T09:37:05.880Z,33.37
2018-06-10T09:39:34.803Z,32.10
2018-06-10T09:42:03.297Z,34.57
2018-06-10T09:44:31.865Z,32.30
2018-06-10T09:47:00.317Z,34.27
2018-06-10T09:49:28.764Z,35.93
2018-06-10T09:51:57.282Z,36.60
2018-06-10T09:54:25.725Z,40.20
2018-06-10T09:56:54.175Z,41.17
2018-06-10T09:59:22.725Z,38.43
2018-06-10T10:01:51.217Z,38.87
2018-06-10T10:04:19.681Z,40.43
2018-06-10T10:06:48.133Z,41.37
2018-06-10T10:09:16.572Z,38.03
2018-06-10T10:11:45.038Z,36.57
2018-06-10T10:14:13.485Z,40.80
2018-06-10T10:16:41.957Z,41.07
2018-06-10T10:19:10.442Z,39.70
2018-06-10T10:21:39.056Z,35.53
2018-06-10T10:24:07.557Z,40.63
2018-06-10T10:26:35.942Z,39.97
2018-06-10T10:29:04.457Z,41.73
2018-06-10T10:31:32.996Z,42.33
2018-06-10T10:34:01.578Z,41.00
2018-06-10T10:36:30.088Z,38.67
2018-06-10T10:38:58.621Z,37.00
2018-06-10T10:41:27.127Z,34.17
2018-06-10T10:43:55.247Z,35.90
2018-06-10T10:46:23.732Z,38.63
2018-06-10T10:48:52.430Z,41.47
2018-06-10T10:51:20.897Z,43.30
2018-06-10T10:53:49.447Z,44.33
2018-06-10T10:56:17.939Z,45.63
2018-06-10T10:58:46.425Z,47.10
2018-06-10T11:01:14.940Z,50.20
2018-06-10T11:03:43.408Z,50.43
2018-06-10T11:06:11.902Z,50.60
2018-06-10T11:08:40.678Z,46.57
2018-06-10T11:11:09.134Z,50.40
2018-06-10T11:13:37.636Z,51.33
2018-06-10T11:16:06.396Z,52.87
2018-06-10T11:18:35.017Z,48.07
2018-06-10T11:21:03.590Z,50.13
2018-06-10T11:23:32.076Z,45.30
2018-06-10T11:26:00.556Z,48.03
2018-06-10T11:28:28.974Z,45.20
2018-06-10T11:30:57.412Z,47.70
2018-06-10T11:33:25.876Z,51.20
2018-06-10T11:35:54.335Z,44.97
2018-06-10T11:38:22.784Z,45.70
2018-06-10T11:40:51.264Z,52.10
2018-06-10T11:43:19.704Z,53.37
2018-06-10T11:45:48.157Z,49.30
2018-06-10T11:48:16.609Z,50.17
2018-06-10T11:50:45.102Z,50.50
2018-06-10T11:53:13.712Z,49.37
2018-06-10T11:55:42.318Z,48.93
2018-06-10T11:58:10.801Z,52.77
2018-06-10T12:00:39.310Z,49.30
2018-06-10T12:03:07.765Z,52.17
2018-06-10T12:05:36.233Z,53.90
2018-06-10T12:08:04.884Z,56.60
2018-06-10T12:10:33.364Z,54.30
2018-06-10T12:13:01.949Z,55.20
2018-06-10T12:15:30.429Z,55.93
2018-06-10T12:17:58.885Z,58.47
2018-06-10T12:20:27.397Z,51.73
2018-06-10T12:22:55.870Z,49.07
2018-06-10T12:25:24.341Z,51.40
2018-06-10T12:27:52.841Z,49.73
2018-06-10T12:30:21.400Z,47.23
2018-06-10T12:32:49.888Z,46.77
2018-06-10T12:35:18.515Z,48.90
2018-06-10T12:37:47.046Z,49.73
2018-06-10T12:40:15.537Z,51.17
2018-06-10T12:42:44.012Z,49.07
2018-06-10T12:45:12.515Z,44.93
2018-06-10T12:47:41.032Z,50.47
2018-06-10T12:50:09.556Z,47.77
2018-06-10T12:52:38.001Z,53.40
2018-06-10T12:55:06.525Z,47.90
2018-06-10T12:57:35.090Z,42.80
2018-06-10T13:00:03.690Z,41.43
2018-06-10T13:02:32.189Z,40.90
2018-06-10T13:05:00.399Z,42.60
2018-06-10T13:07:28.993Z,39.40
2018-06-10T13:09:57.473Z,35.03
2018-06-10T13:12:26.013Z,36.20
2018-06-10T13:14:54.471Z,36.57
2018-06-10T13:17:22.944Z,34.53
2018-06-10T13:19:51.416Z,34.83
2018-06-10T13:22:19.880Z,33.13
2018-06-10T13:24:48.372Z,34.60
2018-06-10T13:27:16.905Z,33.33
2018-06-10T13:29:45.435Z,32.70
2018-06-10T13:32:13.885Z,32.20
2018-06-10T13:34:42.337Z,32.87
2018-06-10T13:37:10.865Z,31.73
2018-06-10T13:39:39.341Z,27.23
2018-06-10T13:42:07.804Z,25.97
2018-06-10T13:44:36.332Z,27.30
2018-06-10T13:47:04.912Z,29.47
2018-06-10T13:49:34.075Z,28.47
2018-06-10T13:52:02.537Z,29.20
2018-06-10T13:54:30.982Z,26.60
2018-06-10T13:56:59.546Z,30.03
2018-06-10T13:59:28.027Z,29.50
2018-06-10T14:01:56.484Z,28.73
2018-06-10T14:04:25.050Z,29.70
2018-06-10T14:06:53.525Z,24.27
2018-06-10T14:09:21.965Z,23.00
2018-06-10T14:11:51.277Z,25.30
2018-06-10T14:14:19.738Z,23.27
2018-06-10T14:16:48.185Z,26.43
2018-06-10T14:19:16.716Z,24.93
2018-06-10T14:21:45.149Z,21.47
2018-06-10T14:24:13.616Z,22.17
2018-06-10T14:26:42.090Z,25.00
2018-06-10T14:29:10.529Z,23.20
2018-06-10T14:31:38.989Z,25.47
2018-06-10T14:34:07.465Z,24.33
2018-06-10T14:36:35.927Z,26.13
2018-06-10T14:39:07.744Z,23.27
2018-06-10T14:41:36.213Z,26.17
2018-06-10T14:44:05.121Z,26.10
2018-06-10T14:46:33.582Z,25.13
2018-06-10T14:49:02.372Z,25.10
2018-06-10T14:51:30.853Z,28.60
2018-06-10T14:53:59.343Z,27.00
2018-06-10T14:56:27.803Z,31.87
2018-06-10T14:58:55.940Z,27.73
2018-06-10T15:01:24.507Z,30.43
2018-06-10T15:03:52.936Z,27.23
2018-06-10T15:06:21.396Z,34.00
2018-06-10T15:08:49.893Z,30.17
2018-06-10T15:11:18.047Z,29.53
2018-06-10T15:13:46.486Z,30.50
2018-06-10T15:16:15.022Z,27.40
2018-06-10T15:18:43.499Z,27.77
2018-06-10T15:21:11.970Z,28.03
2018-06-10T15:23:40.436Z,26.30
2018-06-10T15:26:08.964Z,27.60
2018-06-10T15:28:37.448Z,28.80
2018-06-10T15:31:06.223Z,30.60
2018-06-10T15:33:34.700Z,29.70
2018-06-10T15:36:03.147Z,33.10
2018-06-10T15:38:31.608Z,30.07
2018-06-10T15:41:00.206Z,28.77
2018-06-10T15:43:28.712Z,27.20
2018-06-10T15:45:57.167Z,27.97
2018-06-10T15:48:25.657Z,25.50
2018-06-10T15:50:54.096Z,22.97
2018-06-10T15:53:22.605Z,23.47
2018-06-10T15:55:57.504Z,24.87
2018-06-10T15:58:26.042Z,21.13
2018-06-10T16:00:54.461Z,24.30
2018-06-10T16:03:22.929Z,23.77
2018-06-10T16:05:51.368Z,22.23
2018-06-10T16:08:19.824Z,21.83
2018-06-10T16:10:48.293Z,23.37
2018-06-10T16:13:16.743Z,21.50
2018-06-10T16:15:45.277Z,19.60
2018-06-10T16:18:13.714Z,19.37
2018-06-10T16:20:42.193Z,17.80
2018-06-10T16:23:10.800Z,16.77
2018-06-10T16:25:39.297Z,21.07
2018-06-10T16:28:07.775Z,19.63
2018-06-10T16:30:36.345Z,17.63
2018-06-10T16:33:04.781Z,16.47
2018-06-10T16:35:33.369Z,20.20
2018-06-10T16:38:01.968Z,16.50
2018-06-10T16:40:30.513Z,16.40
2018-06-10T16:42:59.002Z,20.97
2018-06-10T16:45:27.592Z,16.90
2018-06-10T16:47:56.060Z,15.47
2018-06-10T16:50:24.582Z,14.53
2018-06-10T16:52:53.205Z,17.10
2018-06-10T16:55:21.712Z,14.70
2018-06-10T16:57:50.406Z,15.37
2018-06-10T17:00:18.929Z,14.00
2018-06-10T17:02:47.409Z,13.57
2018-06-10T17:05:15.975Z,13.27
2018-06-10T17:07:44.433Z,13.50
2018-06-10T17:10:13.081Z,12.70
2018-06-10T17:12:41.625Z,13.80
2018-06-10T17:15:10.169Z,14.17
2018-06-10T17:17:38.781Z,12.30
2018-06-10T17:20:07.248Z,12.83
2018-06-10T17:22:35.807Z,14.77
2018-06-10T17:25:04.413Z,11.47
2018-06-10T17:27:32.977Z,14.93
2018-06-10T17:30:01.413Z,11.97
2018-06-10T17:32:29.956Z,13.23
2018-06-10T17:34:58.721Z,13.00
2018-06-10T17:37:27.224Z,13.53
2018-06-10T17:39:55.660Z,12.30
2018-06-10T17:42:24.113Z,11.60
2018-06-10T17:44:52.613Z,11.80
2018-06-10T17:47:20.788Z,12.90
2018-06-10T17:49:48.932Z,14.87
2018-06-10T17:52:17.624Z,12.17
2018-06-10T17:54:46.294Z,13.53
2018-06-10T17:57:14.816Z,13.57
2018-06-10T17:59:43.342Z,13.90
2018-06-10T18:02:11.903Z,11.33
2018-06-10T18:04:40.464Z,11.90
2018-06-10T18:07:09.054Z,11.77
2018-06-10T18:09:37.838Z,13.67
2018-06-10T18:12:06.382Z,12.10
2018-06-10T18:14:35.820Z,12.40
2018-06-10T18:17:04.081Z,15.27
2018-06-10T18:19:32.517Z,12.00
2018-06-10T18:22:00.988Z,13.03
2018-06-10T18:24:29.441Z,14.10
2018-06-10T18:26:57.928Z,15.17
2018-06-10T18:29:26.370Z,12.40
2018-06-10T18:31:55.082Z,12.17
2018-06-10T18:34:23.515Z,14.20
2018-06-10T18:36:52.009Z,12.97
2018-06-10T18:39:20.440Z,12.30
2018-06-10T18:41:48.981Z,15.30
2018-06-10T18:44:17.469Z,14.37
2018-06-10T18:46:45.995Z,10.87
2018-06-10T18:49:14.588Z,13.93
2018-06-10T18:51:43.135Z,14.27
2018-06-10T18:54:11.603Z,12.40
2018-06-10T18:56:40.185Z,13.27
2018-06-10T18:59:08.661Z,11.60
2018-06-10T19:01:37.153Z,13.87
2018-06-10T19:04:05.883Z,11.47
2018-06-10T19:06:34.460Z,15.23
2018-06-10T19:09:03.159Z,15.70
2018-06-10T19:11:31.731Z,12.10
2018-06-10T19:14:00.181Z,15.73
2018-06-10T19:16:28.757Z,13.70
2018-06-10T19:18:57.188Z,13.70
2018-06-10T19:21:25.713Z,13.80
2018-06-10T19:23:54.390Z,13.57
2018-06-10T19:26:23.009Z,12.57
2018-06-10T19:28:51.495Z,16.67
2018-06-10T19:31:20.037Z,15.30
2018-06-10T19:33:48.532Z,10.77
2018-06-10T19:36:17.031Z,14.73
2018-06-10T19:38:45.650Z,12.83
2018-06-10T19:41:14.079Z,11.40
2018-06-10T19:43:42.548Z,11.50
2018-06-10T19:46:10.969Z,11.70
2018-06-10T19:48:39.460Z,13.87
2018-06-10T19:51:07.909Z,14.13
2018-06-10T19:53:36.485Z,12.27
2018-06-10T19:56:05.284Z,11.97
2018-06-10T19:58:33.807Z,11.57
2018-06-10T20:01:02.269Z,12.00
2018-06-10T20:03:30.726Z,11.30
2018-06-10T20:05:59.400Z,13.33
2018-06-10T20:08:27.990Z,11.47
2018-06-10T20:10:56.458Z,15.03
2018-06-10T20:13:24.900Z,16.17
2018-06-10T20:15:53.493Z,14.47
2018-06-10T20:18:22.358Z,13.40
2018-06-10T20:20:51.069Z,13.33
2018-06-10T20:23:19.519Z,12.10
2018-06-10T20:25:48.061Z,13.50
2018-06-10T20:28:16.512Z,12.60
2018-06-10T20:30:45.028Z,13.63
2018-06-10T20:33:13.525Z,13.00
2018-06-10T20:35:42.031Z,15.67
2018-06-10T20:38:10.595Z,13.47
2018-06-10T20:40:39.028Z,13.20
2018-06-10T20:43:07.525Z,14.23
2018-06-10T20:45:36.140Z,14.93
2018-06-10T20:48:04.601Z,14.83
2018-06-10T20:50:33.116Z,16.90
2018-06-10T20:53:01.621Z,12.87
2018-06-10T20:55:30.141Z,13.83
2018-06-10T20:57:58.677Z,14.87
2018-06-10T21:00:27.367Z,17.23
2018-06-10T21:02:55.900Z,16.63
2018-06-10T21:05:24.510Z,18.83
2018-06-10T21:07:53.009Z,16.27
2018-06-10T21:10:21.491Z,20.27
2018-06-10T21:12:51.459Z,15.40
2018-06-10T21:15:19.976Z,14.87
2018-06-10T21:17:48.537Z,16.67
2018-06-10T21:20:17.097Z,15.93
2018-06-10T21:22:45.541Z,13.83
2018-06-10T21:25:13.999Z,15.17
2018-06-10T21:27:42.449Z,14.37
2018-06-10T21:30:10.993Z,17.03
2018-06-10T21:32:39.499Z,15.80
2018-06-10T21:35:07.625Z,16.13
2018-06-10T21:37:36.109Z,16.20
2018-06-10T21:40:04.601Z,18.80
2018-06-10T21:42:33.486Z,15.37
2018-06-10T21:45:02.133Z,18.60
2018-06-10T21:47:30.712Z,19.43
2018-06-10T21:49:59.161Z,16.10
2018-06-10T21:52:27.701Z,18.13
2018-06-10T21:54:56.406Z,17.83
2018-06-10T21:57:25.011Z,17.70
2018-06-10T21:59:53.500Z,16.67
2018-06-10T22:02:23.229Z,20.77
2018-06-10T22:04:51.935Z,19.30
2018-06-10T22:07:20.407Z,17.53
2018-06-10T22:09:48.949Z,20.40
2018-06-10T22:12:17.900Z,18.57
2018-06-10T22:14:46.421Z,19.83
2018-06-10T22:17:15.615Z,19.60
2018-06-10T22:19:44.161Z,20.47
2018-06-10T22:22:12.697Z,19.43
2018-06-10T22:24:41.218Z,21.47
2018-06-10T22:27:09.660Z,20.20
2018-06-10T22:29:38.247Z,20.73
2018-06-10T22:32:06.777Z,20.03
2018-06-10T22:34:35.209Z,18.60
2018-06-10T22:37:03.763Z,18.03
2018-06-10T22:39:32.170Z,19.07
2018-06-10T22:42:00.607Z,20.40
2018-06-10T22:44:29.089Z,17.60
2018-06-10T22:46:57.553Z,22.10
2018-06-10T22:49:25.999Z,22.17
2018-06-10T22:51:54.581Z,19.30
2018-06-10T22:54:40.432Z,21.50
2018-06-10T22:57:08.780Z,18.40
2018-06-10T22:59:37.284Z,21.40
2018-06-10T23:02:06.897Z,22.07
2018-06-10T23:04:35.381Z,19.80
2018-06-10T23:07:03.562Z,21.93
2018-06-10T23:09:32.100Z,23.47
2018-06-10T23:12:00.999Z,21.73
2018-06-10T23:14:29.560Z,26.50
2018-06-10T23:16:58.081Z,20.23
2018-06-10T23:19:26.202Z,20.83
2018-06-10T23:21:54.873Z,21.63
2018-06-10T23:24:23.409Z,22.90
2018-06-10T23:26:51.564Z,20.80
2018-06-10T23:29:20.197Z,20.47
2018-06-10T23:31:48.661Z,20.50
2018-06-10T23:34:17.188Z,24.70
2018-06-10T23:36:45.692Z,22.87
2018-06-10T23:39:14.144Z,21.73
2018-06-10T23:41:42.610Z,24.27
2018-06-10T23:44:11.072Z,23.90
2018-06-10T23:46:39.538Z,24.67
2018-06-10T23:49:08.013Z,25.17
2018-06-10T23:51:36.445Z,22.43
2018-06-10T23:54:04.976Z,21.97
2018-06-10T23:56:33.453Z,23.43
2018-06-10T23:59:01.909Z,25.57
